Time;durP1;ratioP1;P1;durP2;ratioP2;P2;SDS_P1;SDS_P2;PMS_P1;PMS_P2;Temp;Humidity;BMP_temperature;BMP_pressure;BME280_temperature;BME280_humidity;BME280_pressure;Samples;Min_cycle;Max_cycle;Signal;HPM_P1;HPM_P2
2022/10/29 00:01:46;;;;;;;5.15;2.92;;;19.30;61.30;;;18.43;60.70;101616.09;12265597;19;20006;-88
2022/10/29 00:05:56;;;;;;;2.83;2.55;;;19.60;61.30;;;18.49;60.54;101617.44;12260651;19;20015;-89
2022/10/29 00:09:58;;;;;;;7.00;3.03;;;19.30;60.80;;;18.29;60.74;101581.91;12264277;19;20019;-89
2022/10/29 00:14:00;;;;;;;2.97;2.55;;;19.40;60.80;;;18.48;60.72;101616.59;12262465;19;20021;-89
2022/10/29 00:18:02;;;;;;;5.13;3.30;;;19.60;60.80;;;18.48;60.49;101627.16;12248459;19;20038;-89
2022/10/29 00:22:03;;;;;;;4.75;2.58;;;19.40;60.50;;;18.07;60.76;101564.97;12251997;19;20012;-89
2022/10/29 00:26:05;;;;;;;4.53;2.47;;;19.40;60.50;;;18.54;60.51;101634.66;12248605;19;20011;-89
2022/10/29 00:30:08;;;;;;;4.35;2.80;;;19.40;60.40;;;18.44;60.49;101616.94;12250149;19;20470;-89
2022/10/29 00:34:10;;;;;;;5.78;2.45;;;19.40;60.30;;;18.28;60.68;101590.78;12248386;19;20361;-89
2022/10/29 00:38:12;;;;;;;3.15;2.15;;;19.40;60.20;;;18.63;60.74;101653.44;12247609;19;19999;-89
2022/10/29 00:42:15;;;;;;;3.90;2.25;;;19.50;60.20;;;18.48;60.60;101631.63;12250178;19;20019;-89
2022/10/29 00:46:30;;;;;;;6.35;2.88;;;19.50;60.10;;;18.55;60.36;101654.88;12246150;19;20006;-89
2022/10/29 00:50:31;;;;;;;5.22;2.88;;;19.50;60.00;;;18.18;60.26;101584.50;12246537;19;20488;-89
2022/10/29 00:54:38;;;;;;;5.05;2.63;;;19.50;59.90;;;18.55;60.52;101654.88;12246532;19;20121;-89
2022/10/29 00:58:40;;;;;;;5.22;2.38;;;19.70;60.10;;;18.67;60.49;101681.38;12259813;19;20009;-89
2022/10/29 01:02:44;;;;;;;3.88;2.45;;;19.50;60.20;;;18.64;60.57;101674.50;12260577;19;20038;-89
2022/10/29 01:06:47;;;;;;;4.82;2.67;;;19.50;60.20;;;18.62;60.39;101671.13;12258476;19;20089;-89
2022/10/29 01:11:36;;;;;;;5.57;3.05;;;19.50;60.00;;;18.71;60.25;101680.16;12260768;19;20019;-89
2022/10/29 01:15:57;;;;;;;8.15;2.60;;;19.60;60.00;;;18.64;60.53;101668.38;12259541;19;20007;-89
2022/10/29 01:20:26;;;;;;;3.50;2.90;;;19.60;59.90;;;18.75;60.47;101668.44;12260106;19;20500;-89
2022/10/29 01:24:44;;;;;;;6.55;2.78;;;19.60;59.80;;;18.73;60.25;101668.50;12259424;19;20007;-89
2022/10/29 01:29:22;;;;;;;3.75;2.50;;;19.60;59.70;;;18.74;60.40;101679.94;12257960;19;20020;-89
2022/10/29 01:33:50;;;;;;;8.15;4.10;;;19.70;59.70;;;18.68;60.15;101669.81;12255224;19;20006;-89
2022/10/29 01:38:33;;;;;;;5.35;2.50;;;19.60;59.70;;;18.72;60.23;101682.72;12250188;19;20019;-89
2022/10/29 01:42:46;;;;;;;4.32;2.53;;;19.60;59.60;;;18.58;60.34;101659.09;12258010;19;20475;-89
2022/10/29 01:46:56;;;;;;;8.18;2.53;;;19.60;59.60;;;18.61;60.27;101664.16;12251398;19;20515;-89
2022/10/29 01:51:03;;;;;;;3.85;2.80;;;19.50;59.50;;;18.21;60.30;101592.19;12257711;19;20025;-89
2022/10/29 01:55:06;;;;;;;4.07;2.42;;;19.60;59.60;;;18.63;60.15;101672.78;12257795;19;20014;-89
2022/10/29 01:59:12;;;;;;;7.55;2.50;;;19.50;59.60;;;18.60;60.19;101680.13;12257816;19;20021;-89
2022/10/29 02:03:29;;;;;;;5.07;2.60;;;19.50;59.60;;;18.60;60.29;101680.13;12259614;19;20084;-89
2022/10/29 02:08:03;;;;;;;3.67;2.55;;;19.50;59.60;;;18.48;60.13;101695.94;12245256;19;20035;-89
2022/10/29 02:12:37;;;;;;;9.45;3.05;;;19.40;59.60;;;18.48;59.96;101684.53;12255674;19;20031;-89
2022/10/29 02:16:40;;;;;;;6.43;2.80;;;19.30;59.70;;;18.27;60.02;101650.75;12254747;19;20027;-89
2022/10/29 02:20:44;;;;;;;4.53;3.08;;;19.30;59.80;;;18.49;60.23;101702.91;12254307;19;20023;-89
2022/10/29 02:24:45;;;;;;;7.15;2.95;;;19.30;59.80;;;18.17;60.34;101654.16;12254049;19;20006;-89
2022/10/29 02:28:47;;;;;;;6.25;2.63;;;19.30;59.90;;;18.46;60.11;101707.59;12257207;19;20006;-89
2022/10/29 02:32:49;;;;;;;5.55;3.08;;;19.20;59.80;;;18.43;60.05;101711.31;12253953;19;20027;-89
2022/10/29 02:36:51;;;;;;;7.03;2.65;;;19.50;60.00;;;18.34;60.13;101693.47;12253117;19;20014;-89
2022/10/29 02:40:53;;;;;;;4.82;2.65;;;19.30;59.90;;;18.27;60.14;101693.06;12256572;19;20077;-89
2022/10/29 02:44:54;;;;;;;4.35;2.42;;;19.10;59.80;;;18.35;60.12;101724.25;12257726;19;20074;-90
2022/10/29 02:48:56;;;;;;;4.47;2.72;;;19.10;59.80;;;18.31;60.00;101725.44;12256454;19;20397;-89
2022/10/29 02:52:58;;;;;;;2.85;2.33;;;19.10;59.80;;;18.00;60.03;101684.47;12255434;19;20006;-89
2022/10/29 02:57:00;;;;;;;4.65;2.15;;;19.00;59.80;;;17.96;59.96;101691.78;12253628;19;20029;-89
2022/10/29 03:01:02;;;;;;;5.40;2.55;;;19.00;59.80;;;18.22;59.96;101734.84;12257444;19;20014;-89
2022/10/29 03:05:06;;;;;;;3.25;2.22;;;19.00;59.90;;;18.11;60.37;101718.91;12257069;19;20456;-90
2022/10/29 03:09:08;;;;;;;4.40;2.67;;;18.90;59.90;;;18.16;60.13;101745.03;12255276;19;20014;-89
2022/10/29 03:13:10;;;;;;;6.45;2.67;;;18.90;60.00;;;18.17;60.19;101741.41;12254244;19;20074;-89
2022/10/29 03:17:12;;;;;;;5.95;2.95;;;18.90;60.10;;;18.11;60.29;101729.47;12253938;19;20006;-89
2022/10/29 03:21:14;;;;;;;4.43;2.88;;;18.80;60.00;;;18.08;60.21;101733.19;12255793;19;20021;-89
2022/10/29 03:25:15;;;;;;;6.18;2.90;;;18.90;60.20;;;18.09;60.36;101726.97;12250566;19;20479;-89
2022/10/29 03:29:17;;;;;;;5.00;2.47;;;18.80;60.10;;;17.95;60.12;101715.66;12253168;19;20014;-89
2022/10/29 03:33:19;;;;;;;3.60;2.78;;;19.00;60.30;;;18.01;60.10;101728.44;12251049;19;20014;-89
2022/10/29 03:37:21;;;;;;;4.20;2.50;;;18.90;60.30;;;17.91;60.28;101709.75;12249948;19;20018;-89
2022/10/29 03:41:22;;;;;;;3.55;2.30;;;18.70;60.10;;;17.90;60.07;101723.91;12253300;19;20015;-89
2022/10/29 03:45:24;;;;;;;4.28;2.58;;;18.70;60.10;;;17.93;60.33;101715.78;12248139;19;20475;-89
2022/10/29 03:49:26;;;;;;;3.97;2.88;;;18.70;60.20;;;17.79;60.10;101702.69;12251836;19;20039;-89
2022/10/29 03:53:28;;;;;;;6.00;2.53;;;18.70;60.20;;;17.91;60.16;101723.81;12249269;19;20086;-89
2022/10/29 03:57:30;;;;;;;4.03;2.30;;;18.70;60.20;;;17.90;60.43;101731.81;12251289;19;20018;-89
2022/10/29 04:01:32;;;;;;;5.70;2.75;;;18.60;60.20;;;17.57;60.35;101685.66;12252691;19;20053;-89
2022/10/29 04:05:34;;;;;;;4.70;2.90;;;18.60;60.20;;;17.67;60.41;101705.19;12249871;19;20018;-89
2022/10/29 04:09:36;;;;;;;4.30;3.05;;;18.50;60.30;;;17.81;60.28;101745.69;12249785;19;20083;-89
2022/10/29 04:13:38;;;;;;;4.80;2.53;;;18.80;60.60;;;17.52;60.15;101705.41;12248684;19;20035;-89
2022/10/29 04:17:40;;;;;;;6.38;2.95;;;18.50;60.40;;;17.63;60.47;101735.44;12244260;19;20021;-89
2022/10/29 04:21:41;;;;;;;3.75;2.92;;;18.50;60.70;;;17.74;60.51;101758.47;12248453;19;20090;-89
2022/10/29 04:25:55;;;;;;;4.38;2.83;;;18.60;60.90;;;17.62;60.36;101754.84;12248328;19;20023;-89
2022/10/29 04:29:57;;;;;;;5.22;2.38;;;18.50;61.30;;;17.46;60.48;101718.06;12250368;19;20014;-90
2022/10/29 04:33:59;;;;;;;5.03;2.95;;;18.60;61.30;;;17.68;60.51;101750.94;12259981;19;20037;-89
2022/10/29 04:38:08;;;;;;;4.85;2.95;;;18.50;61.50;;;17.62;60.43;101738.16;12271642;19;20011;-89
2022/10/29 04:42:10;;;;;;;3.95;2.80;;;18.40;61.50;;;17.69;60.32;101760.56;12278887;19;20014;-89
2022/10/29 04:46:11;;;;;;;4.57;2.95;;;18.40;61.50;;;17.71;60.63;101758.66;12274302;19;20006;-89
2022/10/29 04:50:13;;;;;;;7.75;2.67;;;18.40;61.50;;;17.49;60.38;101711.75;12277351;19;20007;-89
2022/10/29 04:54:15;;;;;;;7.97;3.28;;;18.40;61.40;;;17.58;60.66;101728.75;12272710;19;20034;-89
2022/10/29 04:58:18;;;;;;;4.60;2.78;;;18.50;61.40;;;17.55;60.29;101721.03;12270960;19;20481;-89
2022/10/29 05:02:20;;;;;;;5.03;2.63;;;18.40;61.40;;;17.51;60.55;101719.56;12271190;19;20018;-89
2022/10/29 05:06:22;;;;;;;4.88;2.58;;;18.50;61.60;;;17.63;60.59;101738.06;12267222;19;20005;-89
2022/10/29 05:10:30;;;;;;;3.55;2.33;;;18.40;61.30;;;17.39;60.43;101702.75;12272150;19;20035;-90
2022/10/29 05:14:32;;;;;;;2.97;2.33;;;18.40;61.30;;;17.65;60.46;101764.38;12268114;19;20098;-90
2022/10/29 05:18:36;;;;;;;5.05;2.80;;;18.40;61.30;;;17.53;60.40;101750.22;12272340;19;20018;-89
2022/10/29 05:22:38;;;;;;;3.53;2.75;;;18.40;61.20;;;17.50;60.63;101749.56;12268037;19;20022;-89
2022/10/29 05:26:40;;;;;;;3.28;2.50;;;18.40;61.10;;;17.52;60.65;101750.31;12269655;19;21429;-89
2022/10/29 05:30:42;;;;;;;6.63;3.17;;;18.40;61.20;;;17.54;60.58;101757.16;12272611;19;20018;-89
2022/10/29 05:34:44;;;;;;;4.50;2.90;;;18.30;61.10;;;17.41;60.60;101756.31;12254952;19;20007;-89
2022/10/29 05:38:46;;;;;;;4.65;2.90;;;18.40;61.10;;;17.48;60.48;101768.16;12256120;19;20033;-89
2022/10/29 05:42:48;;;;;;;6.68;3.10;;;18.30;61.20;;;17.46;60.56;101778.81;12255268;19;20021;-89
2022/10/29 05:46:49;;;;;;;4.75;2.65;;;18.30;61.30;;;17.42;60.61;101766.78;12251723;19;20358;-89
2022/10/29 05:50:51;;;;;;;5.10;2.72;;;18.30;61.30;;;17.39;60.63;101763.47;12256865;19;20006;-89
2022/10/29 05:54:53;;;;;;;4.93;2.75;;;18.20;61.20;;;17.43;60.81;101767.63;12251722;19;20022;-89
2022/10/29 05:58:55;;;;;;;4.32;3.05;;;18.20;61.20;;;17.20;60.58;101725.16;12256069;19;20044;-89
2022/10/29 06:02:57;;;;;;;6.57;2.83;;;18.40;61.50;;;17.34;60.66;101750.63;12256197;19;20381;-89
2022/10/29 06:07:00;;;;;;;3.67;2.70;;;18.10;61.20;;;17.34;60.60;101744.50;12251611;19;20010;-89
2022/10/29 06:11:03;;;;;;;4.20;2.50;;;18.10;61.50;;;17.25;60.88;101736.25;12256089;19;20018;-89
2022/10/29 06:15:05;;;;;;;5.50;3.22;;;18.10;61.40;;;17.25;60.87;101741.53;12251216;19;20373;-89
2022/10/29 06:19:07;;;;;;;4.13;2.90;;;18.10;61.60;;;17.01;60.70;101719.38;12253104;19;20018;-89
2022/10/29 06:23:10;;;;;;;5.97;3.45;;;18.30;61.90;;;17.21;60.72;101771.69;12254911;19;20381;-89
2022/10/29 06:27:11;;;;;;;6.75;3.42;;;18.10;61.80;;;17.04;60.71;101742.94;12253034;19;20018;-89
2022/10/29 06:31:13;;;;;;;6.40;3.35;;;18.10;61.80;;;16.83;60.85;101704.78;12253356;19;20015;-89
2022/10/29 06:35:14;;;;;;;4.07;3.25;;;18.10;61.90;;;17.25;60.83;101778.47;12249391;19;20019;-89
2022/10/29 06:39:16;;;;;;;4.65;2.88;;;18.00;61.80;;;17.30;60.66;101795.78;12253098;19;20484;-89
2022/10/29 06:43:18;;;;;;;3.97;3.10;;;18.00;61.90;;;17.23;60.96;101787.44;12254062;19;20479;-89
2022/10/29 06:47:20;;;;;;;4.97;3.35;;;18.00;62.20;;;17.15;60.72;101779.19;12252055;19;20440;-89
2022/10/29 06:51:22;;;;;;;4.97;3.17;;;18.00;62.10;;;17.05;61.06;101763.09;12252164;19;20034;-89
2022/10/29 06:55:24;;;;;;;5.97;2.88;;;18.30;62.70;;;17.24;61.04;101805.81;12245931;19;20026;-89
2022/10/29 06:59:25;;;;;;;5.07;2.63;;;18.30;63.00;;;17.10;61.04;101779.50;12251340;19;20013;-89
2022/10/29 07:03:27;;;;;;;6.45;3.05;;;18.10;62.80;;;16.89;60.98;101739.50;12251843;19;20637;-89
2022/10/29 07:07:29;;;;;;;7.70;3.40;;;18.10;63.00;;;17.28;61.01;101795.03;12248235;19;20038;-89
2022/10/29 07:11:31;;;;;;;5.75;2.95;;;18.10;63.10;;;17.19;61.22;101789.44;12251912;19;20007;-89
2022/10/29 07:15:32;;;;;;;5.70;2.97;;;18.10;63.30;;;17.17;61.14;101783.41;12246721;19;20368;-89
2022/10/29 07:19:34;;;;;;;9.55;3.22;;;18.20;63.50;;;16.97;61.19;101747.78;12251353;19;20029;-89
2022/10/29 07:23:36;;;;;;;6.60;3.13;;;18.40;63.80;;;17.39;61.38;101803.09;12252882;19;20352;-90
2022/10/29 07:27:38;;;;;;;5.97;4.13;;;18.20;64.00;;;17.33;61.17;101782.38;12251222;19;20025;-89
2022/10/29 07:31:40;;;;;;;6.80;3.17;;;18.20;64.20;;;17.45;61.27;101794.78;12251106;19;20095;-90
2022/10/29 07:35:43;;;;;;;7.00;3.28;;;18.50;64.40;;;17.44;61.40;101795.72;12251070;19;20353;-91
2022/10/29 07:39:45;;;;;;;8.80;3.00;;;18.30;64.50;;;17.53;61.48;101808.31;12260556;19;20018;-90
2022/10/29 07:43:47;;;;;;;6.38;3.17;;;18.30;64.50;;;17.62;61.34;101818.25;12264691;19;20024;-89
2022/10/29 07:47:56;;;;;;;5.50;2.67;;;18.60;64.80;;;17.35;61.52;101775.22;12255781;19;20021;-89
2022/10/29 07:51:58;;;;;;;5.82;2.88;;;18.70;64.80;;;17.66;61.40;101813.59;12253870;19;20670;-91
2022/10/29 07:56:00;;;;;;;4.03;2.47;;;18.50;64.90;;;17.72;61.72;101823.78;12254107;19;20014;-90
2022/10/29 08:00:02;;;;;;;3.03;2.47;;;18.80;65.30;;;17.57;61.61;101787.81;12256491;19;20022;-89
2022/10/29 08:04:13;;;;;;;5.57;3.08;;;18.60;65.10;;;17.89;61.82;101833.22;12256431;19;20367;-90
2022/10/29 08:08:16;;;;;;;4.00;2.53;;;18.80;65.20;;;17.76;61.77;101792.69;12253226;19;20365;-91
2022/10/29 08:12:18;;;;;;;7.07;3.05;;;18.90;65.40;;;18.06;61.74;101837.34;12249270;19;20046;-90
2022/10/29 08:16:19;;;;;;;4.60;2.53;;;18.90;65.30;;;18.07;61.86;101824.03;12249864;19;20011;-92
2022/10/29 08:20:24;;;;;;;6.03;3.15;;;19.00;65.10;;;18.07;61.79;101808.16;12247606;19;20022;-90
2022/10/29 08:24:26;;;;;;;4.13;3.00;;;19.00;64.90;;;18.17;61.76;101815.44;12247779;19;20014;-91
2022/10/29 08:28:27;;;;;;;5.30;2.65;;;19.10;65.10;;;18.25;61.82;101818.41;12235876;19;20022;-90
2022/10/29 08:32:32;;;;;;;4.53;3.22;;;19.20;65.10;;;18.40;61.72;101840.28;12244662;19;20047;-91
2022/10/29 08:36:34;;;;;;;4.85;3.05;;;19.30;65.00;;;18.40;61.85;101830.56;12242563;19;20010;-90
2022/10/29 08:40:53;;;;;;;4.80;2.65;;;19.60;65.10;;;18.52;61.94;101840.28;12245211;19;20019;-90
2022/10/29 08:45:38;;;;;;;4.72;2.40;;;19.40;65.00;;;18.53;62.10;101828.72;12244777;19;20349;-90
2022/10/29 08:50:19;;;;;;;4.13;2.72;;;19.50;64.80;;;18.60;61.90;101831.75;12246210;19;20011;-90
2022/10/29 08:54:23;;;;;;;4.65;2.65;;;19.60;64.50;;;18.60;62.11;101817.69;12244267;19;20014;-90
2022/10/29 08:59:02;;;;;;;4.50;2.95;;;19.80;65.00;;;18.71;62.02;101826.56;12241655;19;20517;-90
2022/10/29 09:03:13;;;;;;;5.65;2.92;;;19.70;64.60;;;18.96;62.04;101848.66;12245751;19;20635;-90
2022/10/29 09:07:58;;;;;;;3.75;3.00;;;19.90;64.80;;;19.06;62.15;101849.66;12247524;19;20023;-92
2022/10/29 09:12:36;;;;;;;6.10;3.33;;;20.00;64.60;;;19.02;61.87;101827.00;12244490;19;20414;-88
2022/10/29 09:16:59;;;;;;;3.45;2.72;;;20.10;64.40;;;19.28;62.01;101863.97;12242693;19;20468;-90
2022/10/29 09:21:17;;;;;;;5.88;3.03;;;20.20;64.70;;;19.32;62.12;101849.53;12257685;19;20011;-89
2022/10/29 09:25:41;;;;;;;9.68;3.15;;;20.30;64.30;;;19.47;61.89;101851.06;12255252;19;20582;-90
2022/10/29 09:30:03;;;;;;;4.03;2.90;;;20.40;64.30;;;19.46;62.13;101830.81;12255071;19;20547;-90
2022/10/29 09:34:18;;;;;;;8.07;2.97;;;20.50;63.90;;;19.56;62.22;101839.75;12253101;19;20006;-88
2022/10/29 09:38:53;;;;;;;4.65;3.13;;;20.60;64.00;;;19.74;62.16;101845.50;12244904;19;20502;-89
2022/10/29 09:43:00;;;;;;;5.50;3.47;;;20.70;64.00;;;19.81;61.96;101835.28;12257781;19;20070;-92
2022/10/29 09:47:37;;;;;;;5.40;2.95;;;20.80;64.10;;;20.02;62.01;101856.66;12249042;19;20018;-88
2022/10/29 09:51:52;;;;;;;5.95;3.35;;;21.00;63.90;;;20.13;62.30;101847.84;12256041;19;20379;-88
2022/10/29 09:55:54;;;;;;;9.75;3.40;;;21.10;63.00;;;19.97;62.22;101809.25;12250485;19;20018;-87
2022/10/29 10:00:15;;;;;;;9.48;3.30;;;21.30;63.00;;;20.24;62.16;101832.78;12257712;19;20018;-92
2022/10/29 10:04:33;;;;;;;5.32;2.90;;;21.30;62.80;;;20.13;61.86;101790.34;12257488;19;20025;-90
2022/10/29 10:08:59;;;;;;;6.25;3.00;;;21.40;62.50;;;20.53;61.74;101829.66;12254757;19;20527;-89
2022/10/29 10:13:04;;;;;;;4.63;2.47;;;21.70;62.30;;;20.11;61.57;101748.03;12254281;19;20090;-89
2022/10/29 10:17:06;;;;;;;5.65;3.50;;;21.80;62.30;;;20.65;62.04;101827.84;12249076;19;20018;-90
2022/10/29 10:21:23;;;;;;;6.80;3.33;;;21.70;62.20;;;20.50;61.87;101780.31;12256750;19;20333;-90
2022/10/29 10:25:53;;;;;;;10.68;3.40;;;21.70;61.80;;;20.73;61.68;101815.63;12254295;19;20027;-89
2022/10/29 10:30:03;;;;;;;9.35;3.35;;;21.90;61.30;;;20.78;61.60;101816.09;12249825;19;20519;-89
2022/10/29 10:34:33;;;;;;;6.72;3.88;;;21.70;60.80;;;20.77;61.46;101809.13;12252782;19;20034;-89
2022/10/29 10:38:57;;;;;;;6.68;2.88;;;21.80;61.00;;;20.80;61.59;101802.72;12254070;19;20038;-89
2022/10/29 10:42:59;;;;;;;3.55;2.65;;;21.90;61.30;;;20.67;61.43;101759.56;12254221;19;20011;-89
2022/10/29 10:47:06;;;;;;;4.05;3.08;;;22.10;61.40;;;20.75;61.38;101759.78;12249116;19;20101;-89
2022/10/29 10:51:22;;;;;;;10.93;3.58;;;21.90;61.30;;;20.62;61.35;101725.41;12250404;19;20010;-89
2022/10/29 10:55:38;;;;;;;5.18;2.58;;;22.00;61.30;;;21.10;61.42;101799.34;12248509;19;20563;-89
2022/10/29 11:00:18;;;;;;;4.68;2.65;;;22.10;60.90;;;21.17;61.25;101799.66;12251086;19;20022;-90
2022/10/29 11:04:29;;;;;;;8.57;3.25;;;22.10;61.00;;;21.16;61.21;101784.72;12252287;19;20015;-92
2022/10/29 11:09:00;;;;;;;5.22;3.00;;;22.20;60.70;;;21.09;61.44;101763.16;12249648;19;20018;-89
2022/10/29 11:13:11;;;;;;;7.43;3.05;;;22.30;60.60;;;21.28;61.08;101783.72;12248985;19;20010;-90
2022/10/29 11:17:47;;;;;;;5.05;3.28;;;22.40;60.20;;;21.26;61.28;101784.81;12249046;19;20022;-90
2022/10/29 11:22:05;;;;;;;4.57;2.95;;;22.40;59.90;;;21.36;61.39;101788.34;12251639;19;20014;-92
2022/10/29 11:26:42;;;;;;;6.70;2.92;;;22.40;59.80;;;21.40;60.82;101773.88;12247236;19;20050;-89
2022/10/29 11:31:02;;;;;;;5.43;2.88;;;22.60;60.00;;;21.47;60.86;101775.06;12250554;19;20771;-89
2022/10/29 11:35:14;;;;;;;7.90;3.60;;;22.50;59.90;;;21.49;60.88;101751.81;12244329;19;20479;-89
2022/10/29 11:39:50;;;;;;;5.10;3.28;;;22.50;59.70;;;21.57;60.73;101770.63;12251205;19;20014;-90
2022/10/29 11:43:53;;;;;;;9.70;2.90;;;22.50;59.80;;;21.68;60.58;101759.06;12240773;19;20018;-88
2022/10/29 11:48:24;;;;;;;4.80;2.70;;;22.60;59.60;;;21.58;60.40;101743.09;12245920;19;20010;-89
2022/10/29 11:52:41;;;;;;;8.38;4.75;;;22.60;59.60;;;21.69;60.41;101752.78;12248060;19;20085;-90
2022/10/29 11:57:03;;;;;;;5.75;4.32;;;22.60;59.50;;;21.64;60.63;101739.06;12244797;19;20038;-89
2022/10/29 12:01:51;;;;;;;4.70;3.85;;;22.70;59.60;;;21.59;60.48;101728.81;12248203;19;20011;-89
2022/10/29 12:06:13;;;;;;;9.07;3.72;;;22.70;59.70;;;21.68;60.50;101729.81;12245732;19;20329;-88
2022/10/29 12:10:59;;;;;;;7.82;5.05;;;22.70;59.50;;;21.76;60.49;101737.97;12247862;19;20006;-92
2022/10/29 12:15:16;;;;;;;7.97;5.57;;;22.70;59.70;;;21.70;60.66;101716.41;12242434;19;20022;-88
2022/10/29 12:19:51;;;;;;;5.38;4.13;;;22.70;59.50;;;21.85;60.24;101725.72;12248465;19;20014;-89
2022/10/29 12:24:31;;;;;;;5.90;3.67;;;22.80;59.50;;;21.91;60.48;101719.03;12248808;19;20002;-88
2022/10/29 12:28:53;;;;;;;4.40;3.13;;;22.80;59.30;;;21.97;60.18;101714.00;12247097;19;20118;-90
2022/10/29 12:33:26;;;;;;;4.97;3.38;;;22.90;59.50;;;22.00;60.35;101710.22;12246076;19;20031;-89
2022/10/29 12:37:47;;;;;;;7.30;3.42;;;22.90;59.60;;;22.01;60.35;101698.63;12244479;19;20464;-89
2022/10/29 12:41:52;;;;;;;7.15;3.40;;;22.90;59.30;;;22.01;60.15;101702.13;12245388;19;20035;-90
2022/10/29 12:46:10;;;;;;;5.50;3.07;;;23.00;59.30;;;22.06;60.34;101699.91;12238162;19;20563;-89
2022/10/29 12:51:00;;;;;;;7.57;3.28;;;23.00;59.40;;;22.11;59.97;101699.47;12245485;19;20556;-89
2022/10/29 12:55:07;;;;;;;4.72;3.17;;;23.10;59.50;;;22.24;59.94;101704.59;12252017;19;20346;-89
2022/10/29 12:59:22;;;;;;;5.00;3.05;;;23.10;59.40;;;22.26;59.82;101703.47;12258655;19;20069;-88
2022/10/29 13:03:55;;;;;;;6.60;3.00;;;23.10;59.50;;;22.27;60.15;101696.31;12258964;19;20090;-88
2022/10/29 13:08:02;;;;;;;5.70;2.95;;;23.20;59.50;;;22.35;60.19;101688.50;12254175;19;20009;-88
2022/10/29 13:12:09;;;;;;;5.15;3.45;;;23.20;59.40;;;22.34;60.13;101678.00;12257056;19;20027;-88
2022/10/29 13:16:20;;;;;;;8.93;4.13;;;23.20;59.30;;;22.35;59.70;101663.69;12253460;19;20463;-88
2022/10/29 13:20:35;;;;;;;8.90;4.63;;;23.30;59.10;;;22.28;59.79;101647.47;12256405;19;20011;-88
2022/10/29 13:24:36;;;;;;;7.40;4.18;;;23.30;59.30;;;22.42;60.10;101644.38;12254860;19;20006;-88
2022/10/29 13:28:38;;;;;;;4.47;3.40;;;23.30;59.30;;;22.47;59.78;101649.28;12255093;19;20472;-88
2022/10/29 13:32:43;;;;;;;4.75;3.60;;;23.30;59.20;;;22.45;59.69;101644.09;12250537;19;20025;-89
2022/10/29 13:36:44;;;;;;;4.93;3.60;;;23.30;59.10;;;22.39;59.72;101634.03;12249353;19;20052;-88
2022/10/29 13:41:38;;;;;;;4.82;3.53;;;23.60;59.30;;;22.46;59.82;101651.09;12257391;19;20015;-89
2022/10/29 13:55:16;;;;;;;10.40;3.22;;;23.40;58.80;;;22.51;59.48;101658.66;12251879;19;20029;-91
2022/10/29 14:00:09;;;;;;;6.65;3.08;;;23.40;59.10;;;22.50;59.72;101655.16;12258184;19;20035;-90
2022/10/29 14:05:14;;;;;;;10.27;4.05;;;23.40;59.20;;;21.91;59.42;101560.28;12250008;19;20011;-90
2022/10/29 14:15:45;;;;;;;4.00;3.08;;;23.20;59.00;;;21.97;59.70;101551.75;12239109;19;20024;-88
2022/10/29 14:20:04;;;;;;;3.40;2.65;;;23.40;59.10;;;22.24;59.40;101592.81;12244624;19;20718;-88
2022/10/29 14:24:25;;;;;;;6.90;3.05;;;23.40;59.20;;;22.10;59.37;101581.56;12242900;19;20026;-88
2022/10/29 14:29:22;;;;;;;10.25;3.42;;;23.40;59.20;;;22.16;59.45;101582.00;12245486;19;20018;-88
2022/10/29 14:33:37;;;;;;;4.47;3.50;;;23.50;59.30;;;22.12;59.26;101575.31;12240237;19;20103;-88
2022/10/29 14:38:00;;;;;;;;;;;;;;;;;;;;;
2022/10/29 14:42:31;;;;;;;14.80;5.40;;;23.40;59.40;;;22.08;59.52;101580.88;12249870;19;20078;-88
2022/10/29 14:46:37;;;;;;;6.05;3.10;;;23.40;59.40;;;22.16;59.22;101605.94;12245871;19;20039;-88
2022/10/29 14:50:59;;;;;;;4.30;3.00;;;23.40;59.40;;;21.92;59.30;101561.94;12249228;19;20006;-89
2022/10/29 14:55:42;;;;;;;10.55;3.67;;;23.20;59.40;;;21.87;59.52;101566.84;12245792;19;20855;-88
2022/10/29 14:59:56;;;;;;;7.07;2.75;;;23.30;59.50;;;22.00;59.24;101585.22;12250296;19;20010;-89
2022/10/29 15:04:59;;;;;;;5.82;2.88;;;23.30;59.70;;;21.71;59.15;101555.91;12248905;19;20014;-89
2022/10/29 15:09:25;;;;;;;5.22;3.15;;;23.10;59.50;;;21.98;59.23;101593.34;12252193;19;20010;-88
2022/10/29 15:13:57;;;;;;;;;;;;;;;;;;;;;
2022/10/29 15:18:33;;;;;;;7.35;3.47;;;23.10;59.70;;;21.79;59.58;101572.00;12245401;19;20034;-89
2022/10/29 15:22:44;;;;;;;3.75;2.78;;;23.00;59.70;;;21.88;59.14;101584.50;12252021;19;20014;-88
2022/10/29 15:26:53;;;;;;;5.10;3.70;;;23.00;59.90;;;21.90;59.61;101587.00;12247896;19;20348;-89
2022/10/29 15:30:59;;;;;;;8.65;4.97;;;22.90;59.70;;;21.87;59.25;101580.13;12247548;19;20523;-90
2022/10/29 15:35:01;;;;;;;24.77;18.52;;;22.90;59.80;;;21.98;59.35;101606.66;12244653;19;20035;-90
2022/10/29 15:39:19;;;;;;;12.85;8.57;;;22.90;59.90;;;22.09;59.38;101629.63;12244423;19;20353;-90
2022/10/29 15:43:29;;;;;;;8.45;5.75;;;22.80;59.70;;;21.96;59.51;101613.91;12249051;19;20025;-90
2022/10/29 15:47:31;;;;;;;10.18;4.30;;;22.80;59.70;;;22.02;59.17;101626.66;12246060;19;20025;-89
2022/10/29 15:51:33;;;;;;;5.53;3.38;;;22.70;59.70;;;21.91;59.72;101621.47;12248487;19;20022;-90
2022/10/29 15:55:39;;;;;;;7.10;3.20;;;22.70;59.70;;;21.73;59.22;101600.00;12244724;19;20014;-89
2022/10/29 15:59:40;;;;;;;4.70;3.83;;;22.60;59.70;;;21.57;59.43;101581.88;12245381;19;20027;-90
2022/10/29 16:03:43;;;;;;;4.75;2.70;;;22.60;59.80;;;21.34;59.19;101548.50;12248514;19;20427;-89
2022/10/29 16:07:46;;;;;;;3.28;2.95;;;22.50;59.70;;;21.64;59.75;101617.59;12244405;19;20014;-90
2022/10/29 16:11:49;;;;;;;6.47;3.38;;;22.50;59.80;;;21.61;59.53;101636.47;12245995;19;20043;-90
2022/10/29 16:15:51;;;;;;;9.27;3.67;;;22.40;59.90;;;21.54;59.19;101637.97;12243076;19;20468;-90
2022/10/29 16:19:52;;;;;;;7.55;4.75;;;22.30;59.90;;;21.48;59.28;101635.03;12247938;19;20022;-90
2022/10/29 16:23:54;;;;;;;7.18;4.20;;;22.40;60.20;;;21.52;59.29;101649.72;12245840;19;20018;-90
2022/10/29 16:27:56;;;;;;;7.28;4.32;;;22.20;60.30;;;21.44;59.63;101642.41;12247466;19;20015;-90
2022/10/29 16:31:57;;;;;;;8.55;4.20;;;22.20;60.40;;;21.25;59.23;101619.22;12257692;19;20018;-89
2022/10/29 16:35:59;;;;;;;8.38;4.70;;;22.10;60.30;;;21.37;59.54;101642.13;12253775;19;20022;-90
2022/10/29 16:40:01;;;;;;;4.88;3.85;;;22.20;60.50;;;21.29;59.76;101623.31;12254872;19;20027;-90
2022/10/29 16:44:03;;;;;;;5.00;4.15;;;22.00;60.30;;;21.24;59.76;101617.53;12255870;19;20035;-90
2022/10/29 16:48:05;;;;;;;5.40;3.55;;;22.00;60.30;;;21.09;59.67;101606.44;12253203;19;20018;-90
2022/10/29 16:52:09;;;;;;;7.07;3.75;;;21.90;60.30;;;21.17;59.50;101625.22;12254713;19;20418;-90
2022/10/29 16:56:11;;;;;;;4.88;3.55;;;21.90;60.40;;;20.85;59.65;101581.97;12248284;19;21098;-90
2022/10/29 17:00:13;;;;;;;5.15;3.33;;;21.90;60.60;;;21.03;59.71;101612.25;12259099;19;20022;-90
2022/10/29 17:04:15;;;;;;;5.88;4.13;;;21.80;60.40;;;20.91;59.75;101598.22;12256156;19;20013;-89
2022/10/29 17:08:16;;;;;;;3.45;3.15;;;21.70;60.30;;;20.99;59.51;101632.94;12249958;19;20014;-90
2022/10/29 17:12:18;;;;;;;3.95;2.80;;;21.70;60.40;;;20.99;59.70;101645.38;12255902;19;20502;-90
2022/10/29 17:16:20;;;;;;;5.53;3.83;;;21.90;60.80;;;20.56;59.58;101577.31;12253303;19;20042;-90
2022/10/29 17:20:21;;;;;;;5.68;4.30;;;21.70;60.80;;;20.86;59.48;101626.13;12256216;19;20006;-91
2022/10/29 17:24:25;;;;;;;7.47;3.83;;;21.80;61.20;;;20.88;59.85;101629.50;12249603;19;20007;-90
2022/10/29 17:28:27;;;;;;;7.93;3.47;;;21.50;60.80;;;20.77;59.78;101617.13;12251003;19;20042;-90
2022/10/29 17:32:31;;;;;;;6.20;3.30;;;21.50;60.90;;;20.85;59.58;101640.38;12254773;19;20035;-90